sensor_id;sensor_type;location;lat;lon;timestamp;P1;durP1;ratioP1;P2;durP2;ratioP2
59960;SDS011;55902;-37.980;-63.602;2023-07-02T00:01:12;7.07;;;3.45;;
59960;SDS011;55902;-37.980;-63.602;2023-07-02T00:03:39;5.03;;;2.67;;
59960;SDS011;55902;-37.980;-63.602;2023-07-02T00:06:06;5.55;;;2.60;;
59960;SDS011;55902;-37.980;-63.602;2023-07-02T00:08:33;3.70;;;2.30;;
59960;SDS011;55902;-37.980;-63.602;2023-07-02T00:11:00;4.57;;;2.72;;
59960;SDS011;55902;-37.980;-63.602;2023-07-02T00:13:27;4.43;;;2.70;;
59960;SDS011;55902;-37.980;-63.602;2023-07-02T00:15:54;5.85;;;2.80;;
59960;SDS011;55902;-37.980;-63.602;2023-07-02T00:18:21;6.03;;;3.03;;
59960;SDS011;55902;-37.980;-63.602;2023-07-02T00:20:48;5.57;;;3.05;;
59960;SDS011;55902;-37.980;-63.602;2023-07-02T00:23:15;5.90;;;3.60;;
59960;SDS011;55902;-37.980;-63.602;2023-07-02T00:32:27;5.78;;;2.95;;
59960;SDS011;55902;-37.980;-63.602;2023-07-02T00:34:55;6.95;;;3.80;;
59960;SDS011;55902;-37.980;-63.602;2023-07-02T00:37:22;9.55;;;4.10;;
59960;SDS011;55902;-37.980;-63.602;2023-07-02T00:39:50;5.47;;;3.72;;
59960;SDS011;55902;-37.980;-63.602;2023-07-02T00:42:17;9.50;;;3.53;;
59960;SDS011;55902;-37.980;-63.602;2023-07-02T00:44:46;4.35;;;3.15;;
59960;SDS011;55902;-37.980;-63.602;2023-07-02T00:47:13;3.80;;;2.90;;
59960;SDS011;55902;-37.980;-63.602;2023-07-02T00:49:42;3.78;;;2.92;;
59960;SDS011;55902;-37.980;-63.602;2023-07-02T00:52:09;4.70;;;3.10;;
59960;SDS011;55902;-37.980;-63.602;2023-07-02T00:54:37;5.03;;;3.10;;
59960;SDS011;55902;-37.980;-63.602;2023-07-02T00:57:05;4.75;;;3.10;;
59960;SDS011;55902;-37.980;-63.602;2023-07-02T00:59:33;7.63;;;3.05;;
59960;SDS011;55902;-37.980;-63.602;2023-07-02T01:02:03;7.72;;;3.03;;
59960;SDS011;55902;-37.980;-63.602;2023-07-02T01:04:32;3.55;;;2.58;;
59960;SDS011;55902;-37.980;-63.602;2023-07-02T01:06:59;3.30;;;2.60;;
59960;SDS011;55902;-37.980;-63.602;2023-07-02T01:09:27;3.92;;;2.80;;
59960;SDS011;55902;-37.980;-63.602;2023-07-02T01:11:54;4.57;;;2.60;;
59960;SDS011;55902;-37.980;-63.602;2023-07-02T01:14:38;7.35;;;2.88;;
59960;SDS011;55902;-37.980;-63.602;2023-07-02T01:17:07;6.72;;;2.90;;
59960;SDS011;55902;-37.980;-63.602;2023-07-02T01:19:40;4.78;;;3.10;;
59960;SDS011;55902;-37.980;-63.602;2023-07-02T01:22:08;8.00;;;2.83;;
59960;SDS011;55902;-37.980;-63.602;2023-07-02T01:24:37;6.40;;;2.72;;
59960;SDS011;55902;-37.980;-63.602;2023-07-02T01:27:06;4.57;;;2.67;;
59960;SDS011;55902;-37.980;-63.602;2023-07-02T01:29:35;5.05;;;2.90;;
59960;SDS011;55902;-37.980;-63.602;2023-07-02T01:32:03;7.50;;;3.10;;
59960;SDS011;55902;-37.980;-63.602;2023-07-02T01:34:30;4.45;;;2.80;;
59960;SDS011;55902;-37.980;-63.602;2023-07-02T01:37:01;3.97;;;2.50;;
59960;SDS011;55902;-37.980;-63.602;2023-07-02T01:39:29;4.10;;;2.55;;
59960;SDS011;55902;-37.980;-63.602;2023-07-02T01:42:07;6.43;;;2.88;;
59960;SDS011;55902;-37.980;-63.602;2023-07-02T01:44:35;2.70;;;2.30;;
59960;SDS011;55902;-37.980;-63.602;2023-07-02T01:47:06;4.75;;;2.33;;
59960;SDS011;55902;-37.980;-63.602;2023-07-02T01:49:33;8.88;;;2.47;;
59960;SDS011;55902;-37.980;-63.602;2023-07-02T01:52:01;3.35;;;2.50;;
59960;SDS011;55902;-37.980;-63.602;2023-07-02T01:54:29;6.95;;;2.28;;
59960;SDS011;55902;-37.980;-63.602;2023-07-02T01:56:57;4.70;;;2.70;;
59960;SDS011;55902;-37.980;-63.602;2023-07-02T01:59:25;7.22;;;2.70;;
59960;SDS011;55902;-37.980;-63.602;2023-07-02T02:01:52;4.00;;;2.53;;
59960;SDS011;55902;-37.980;-63.602;2023-07-02T02:04:19;6.57;;;2.70;;
59960;SDS011;55902;-37.980;-63.602;2023-07-02T02:06:46;5.38;;;3.10;;
59960;SDS011;55902;-37.980;-63.602;2023-07-02T02:09:13;5.38;;;2.72;;
59960;SDS011;55902;-37.980;-63.602;2023-07-02T02:11:44;6.35;;;3.20;;
59960;SDS011;55902;-37.980;-63.602;2023-07-02T02:14:15;7.95;;;3.50;;
59960;SDS011;55902;-37.980;-63.602;2023-07-02T02:16:43;6.82;;;3.00;;
59960;SDS011;55902;-37.980;-63.602;2023-07-02T02:19:13;4.93;;;3.00;;
59960;SDS011;55902;-37.980;-63.602;2023-07-02T02:21:43;4.10;;;2.40;;
59960;SDS011;55902;-37.980;-63.602;2023-07-02T02:24:10;4.53;;;2.95;;
59960;SDS011;55902;-37.980;-63.602;2023-07-02T02:26:37;5.38;;;3.03;;
59960;SDS011;55902;-37.980;-63.602;2023-07-02T02:29:04;6.00;;;2.80;;
59960;SDS011;55902;-37.980;-63.602;2023-07-02T02:31:31;6.65;;;3.00;;
59960;SDS011;55902;-37.980;-63.602;2023-07-02T02:33:58;5.68;;;3.15;;
59960;SDS011;55902;-37.980;-63.602;2023-07-02T02:36:25;7.10;;;3.20;;
59960;SDS011;55902;-37.980;-63.602;2023-07-02T02:38:52;7.15;;;3.03;;
59960;SDS011;55902;-37.980;-63.602;2023-07-02T02:41:19;6.90;;;3.00;;
59960;SDS011;55902;-37.980;-63.602;2023-07-02T02:43:46;5.35;;;3.05;;
59960;SDS011;55902;-37.980;-63.602;2023-07-02T02:46:18;6.70;;;3.20;;
59960;SDS011;55902;-37.980;-63.602;2023-07-02T02:48:49;6.82;;;3.40;;
59960;SDS011;55902;-37.980;-63.602;2023-07-02T02:51:17;3.60;;;2.90;;
59960;SDS011;55902;-37.980;-63.602;2023-07-02T02:53:44;8.00;;;2.90;;
59960;SDS011;55902;-37.980;-63.602;2023-07-02T02:56:11;5.20;;;2.90;;
59960;SDS011;55902;-37.980;-63.602;2023-07-02T03:02:00;6.32;;;2.60;;
59960;SDS011;55902;-37.980;-63.602;2023-07-02T03:04:27;5.65;;;2.60;;
59960;SDS011;55902;-37.980;-63.602;2023-07-02T03:06:54;4.40;;;2.60;;
59960;SDS011;55902;-37.980;-63.602;2023-07-02T03:13:04;2.88;;;2.50;;
59960;SDS011;55902;-37.980;-63.602;2023-07-02T03:15:31;5.75;;;3.45;;
59960;SDS011;55902;-37.980;-63.602;2023-07-02T03:17:58;3.42;;;2.53;;
59960;SDS011;55902;-37.980;-63.602;2023-07-02T03:20:25;3.45;;;2.60;;
59960;SDS011;55902;-37.980;-63.602;2023-07-02T03:22:52;3.50;;;2.53;;
59960;SDS011;55902;-37.980;-63.602;2023-07-02T03:25:19;4.25;;;2.72;;
59960;SDS011;55902;-37.980;-63.602;2023-07-02T03:27:46;7.65;;;2.50;;
59960;SDS011;55902;-37.980;-63.602;2023-07-02T03:30:13;3.90;;;2.60;;
59960;SDS011;55902;-37.980;-63.602;2023-07-02T03:32:40;5.22;;;2.50;;
59960;SDS011;55902;-37.980;-63.602;2023-07-02T03:35:07;5.20;;;2.90;;
59960;SDS011;55902;-37.980;-63.602;2023-07-02T03:37:34;3.53;;;2.53;;
59960;SDS011;55902;-37.980;-63.602;2023-07-02T03:40:01;4.60;;;2.90;;
59960;SDS011;55902;-37.980;-63.602;2023-07-02T03:42:29;4.30;;;2.90;;
59960;SDS011;55902;-37.980;-63.602;2023-07-02T03:44:56;3.35;;;2.70;;
59960;SDS011;55902;-37.980;-63.602;2023-07-02T03:47:23;3.95;;;3.05;;
59960;SDS011;55902;-37.980;-63.602;2023-07-02T03:49:50;7.38;;;3.00;;
59960;SDS011;55902;-37.980;-63.602;2023-07-02T04:02:23;3.58;;;2.50;;
59960;SDS011;55902;-37.980;-63.602;2023-07-02T04:04:50;5.55;;;3.17;;
59960;SDS011;55902;-37.980;-63.602;2023-07-02T04:07:17;4.20;;;2.90;;
59960;SDS011;55902;-37.980;-63.602;2023-07-02T04:09:44;4.03;;;2.58;;
59960;SDS011;55902;-37.980;-63.602;2023-07-02T04:12:11;4.00;;;2.70;;
59960;SDS011;55902;-37.980;-63.602;2023-07-02T04:14:38;3.67;;;2.80;;
59960;SDS011;55902;-37.980;-63.602;2023-07-02T04:17:05;5.22;;;3.15;;
59960;SDS011;55902;-37.980;-63.602;2023-07-02T04:19:32;4.43;;;2.95;;
59960;SDS011;55902;-37.980;-63.602;2023-07-02T04:22:02;3.72;;;3.10;;
59960;SDS011;55902;-37.980;-63.602;2023-07-02T04:24:29;5.05;;;3.05;;
59960;SDS011;55902;-37.980;-63.602;2023-07-02T04:26:56;4.35;;;2.90;;
59960;SDS011;55902;-37.980;-63.602;2023-07-02T04:29:23;4.63;;;2.80;;
59960;SDS011;55902;-37.980;-63.602;2023-07-02T04:31:49;5.43;;;2.92;;
59960;SDS011;55902;-37.980;-63.602;2023-07-02T04:34:16;4.25;;;3.05;;
59960;SDS011;55902;-37.980;-63.602;2023-07-02T04:36:47;4.78;;;3.42;;
59960;SDS011;55902;-37.980;-63.602;2023-07-02T04:39:14;3.85;;;3.00;;
59960;SDS011;55902;-37.980;-63.602;2023-07-02T04:41:41;4.43;;;2.90;;
59960;SDS011;55902;-37.980;-63.602;2023-07-02T04:44:08;3.05;;;2.70;;
59960;SDS011;55902;-37.980;-63.602;2023-07-02T04:46:36;3.55;;;2.90;;
59960;SDS011;55902;-37.980;-63.602;2023-07-02T04:49:03;9.20;;;3.15;;
59960;SDS011;55902;-37.980;-63.602;2023-07-02T04:51:30;3.33;;;2.97;;
59960;SDS011;55902;-37.980;-63.602;2023-07-02T04:53:57;3.72;;;3.00;;
59960;SDS011;55902;-37.980;-63.602;2023-07-02T04:56:24;4.88;;;3.00;;
59960;SDS011;55902;-37.980;-63.602;2023-07-02T04:58:52;4.00;;;3.03;;
59960;SDS011;55902;-37.980;-63.602;2023-07-02T05:01:19;5.15;;;3.08;;
59960;SDS011;55902;-37.980;-63.602;2023-07-02T05:03:46;4.32;;;3.00;;
59960;SDS011;55902;-37.980;-63.602;2023-07-02T05:06:13;4.90;;;3.20;;
59960;SDS011;55902;-37.980;-63.602;2023-07-02T05:08:40;4.15;;;3.13;;
59960;SDS011;55902;-37.980;-63.602;2023-07-02T05:11:07;3.67;;;3.10;;
59960;SDS011;55902;-37.980;-63.602;2023-07-02T05:13:34;3.42;;;3.08;;
59960;SDS011;55902;-37.980;-63.602;2023-07-02T05:16:01;4.75;;;3.05;;
59960;SDS011;55902;-37.980;-63.602;2023-07-02T05:18:28;3.58;;;3.13;;
59960;SDS011;55902;-37.980;-63.602;2023-07-02T05:20:55;3.63;;;2.88;;
59960;SDS011;55902;-37.980;-63.602;2023-07-02T05:23:22;3.80;;;3.10;;
59960;SDS011;55902;-37.980;-63.602;2023-07-02T05:25:49;4.18;;;3.17;;
59960;SDS011;55902;-37.980;-63.602;2023-07-02T05:28:16;5.00;;;2.90;;
59960;SDS011;55902;-37.980;-63.602;2023-07-02T05:30:43;4.57;;;3.10;;
59960;SDS011;55902;-37.980;-63.602;2023-07-02T05:33:10;4.00;;;3.38;;
59960;SDS011;55902;-37.980;-63.602;2023-07-02T05:35:38;4.88;;;3.10;;
59960;SDS011;55902;-37.980;-63.602;2023-07-02T05:38:05;4.65;;;3.40;;
59960;SDS011;55902;-37.980;-63.602;2023-07-02T05:40:31;4.53;;;3.13;;
59960;SDS011;55902;-37.980;-63.602;2023-07-02T05:43:01;4.78;;;3.08;;
59960;SDS011;55902;-37.980;-63.602;2023-07-02T05:45:28;5.40;;;3.40;;
59960;SDS011;55902;-37.980;-63.602;2023-07-02T05:47:56;4.45;;;3.08;;
59960;SDS011;55902;-37.980;-63.602;2023-07-02T05:50:23;5.13;;;3.10;;
59960;SDS011;55902;-37.980;-63.602;2023-07-02T05:52:50;5.13;;;3.22;;
59960;SDS011;55902;-37.980;-63.602;2023-07-02T05:55:17;3.78;;;3.20;;
59960;SDS011;55902;-37.980;-63.602;2023-07-02T05:57:44;4.82;;;3.40;;
59960;SDS011;55902;-37.980;-63.602;2023-07-02T06:00:11;5.95;;;3.22;;
59960;SDS011;55902;-37.980;-63.602;2023-07-02T06:02:38;4.30;;;3.30;;
59960;SDS011;55902;-37.980;-63.602;2023-07-02T06:05:06;4.47;;;3.20;;
59960;SDS011;55902;-37.980;-63.602;2023-07-02T06:07:33;5.20;;;3.20;;
59960;SDS011;55902;-37.980;-63.602;2023-07-02T06:10:00;3.35;;;3.00;;
59960;SDS011;55902;-37.980;-63.602;2023-07-02T06:12:27;7.18;;;3.38;;
59960;SDS011;55902;-37.980;-63.602;2023-07-02T06:25:00;4.20;;;3.10;;
59960;SDS011;55902;-37.980;-63.602;2023-07-02T06:27:26;3.38;;;3.08;;
59960;SDS011;55902;-37.980;-63.602;2023-07-02T06:29:53;4.60;;;3.65;;
59960;SDS011;55902;-37.980;-63.602;2023-07-02T06:32:20;6.15;;;3.50;;
59960;SDS011;55902;-37.980;-63.602;2023-07-02T06:34:47;4.10;;;3.22;;
59960;SDS011;55902;-37.980;-63.602;2023-07-02T06:37:14;6.45;;;3.47;;
59960;SDS011;55902;-37.980;-63.602;2023-07-02T06:39:41;5.05;;;3.30;;
59960;SDS011;55902;-37.980;-63.602;2023-07-02T06:42:08;4.10;;;3.28;;
59960;SDS011;55902;-37.980;-63.602;2023-07-02T06:44:35;4.75;;;3.45;;
59960;SDS011;55902;-37.980;-63.602;2023-07-02T06:47:02;6.03;;;3.58;;
59960;SDS011;55902;-37.980;-63.602;2023-07-02T06:49:29;4.75;;;3.42;;
59960;SDS011;55902;-37.980;-63.602;2023-07-02T06:51:56;4.00;;;3.22;;
59960;SDS011;55902;-37.980;-63.602;2023-07-02T06:54:25;5.30;;;3.42;;
59960;SDS011;55902;-37.980;-63.602;2023-07-02T06:56:52;4.28;;;3.20;;
59960;SDS011;55902;-37.980;-63.602;2023-07-02T06:59:20;4.88;;;3.30;;
59960;SDS011;55902;-37.980;-63.602;2023-07-02T07:01:47;3.90;;;3.10;;
59960;SDS011;55902;-37.980;-63.602;2023-07-02T07:04:15;6.63;;;3.35;;
59960;SDS011;55902;-37.980;-63.602;2023-07-02T07:06:42;3.35;;;2.97;;
59960;SDS011;55902;-37.980;-63.602;2023-07-02T07:09:09;3.88;;;3.08;;
59960;SDS011;55902;-37.980;-63.602;2023-07-02T07:11:36;4.10;;;3.05;;
59960;SDS011;55902;-37.980;-63.602;2023-07-02T07:14:03;4.47;;;3.28;;
59960;SDS011;55902;-37.980;-63.602;2023-07-02T07:16:30;4.05;;;3.25;;
59960;SDS011;55902;-37.980;-63.602;2023-07-02T07:18:57;3.80;;;3.28;;
59960;SDS011;55902;-37.980;-63.602;2023-07-02T07:21:24;5.38;;;3.40;;
59960;SDS011;55902;-37.980;-63.602;2023-07-02T07:23:51;3.72;;;3.08;;
59960;SDS011;55902;-37.980;-63.602;2023-07-02T07:26:18;3.90;;;3.28;;
59960;SDS011;55902;-37.980;-63.602;2023-07-02T07:28:45;4.70;;;3.75;;
59960;SDS011;55902;-37.980;-63.602;2023-07-02T07:31:12;5.03;;;3.00;;
59960;SDS011;55902;-37.980;-63.602;2023-07-02T07:33:39;3.92;;;3.22;;
59960;SDS011;55902;-37.980;-63.602;2023-07-02T07:36:06;5.15;;;3.10;;
59960;SDS011;55902;-37.980;-63.602;2023-07-02T07:38:33;4.05;;;3.00;;
59960;SDS011;55902;-37.980;-63.602;2023-07-02T07:41:00;4.85;;;3.05;;
59960;SDS011;55902;-37.980;-63.602;2023-07-02T07:43:27;4.20;;;3.10;;
59960;SDS011;55902;-37.980;-63.602;2023-07-02T07:45:54;3.88;;;3.10;;
59960;SDS011;55902;-37.980;-63.602;2023-07-02T07:48:21;4.47;;;3.00;;
59960;SDS011;55902;-37.980;-63.602;2023-07-02T07:50:48;4.13;;;3.00;;
59960;SDS011;55902;-37.980;-63.602;2023-07-02T07:53:15;4.80;;;2.92;;
59960;SDS011;55902;-37.980;-63.602;2023-07-02T07:55:42;4.40;;;3.08;;
59960;SDS011;55902;-37.980;-63.602;2023-07-02T07:58:09;4.70;;;3.10;;
59960;SDS011;55902;-37.980;-63.602;2023-07-02T08:00:36;3.60;;;3.00;;
59960;SDS011;55902;-37.980;-63.602;2023-07-02T08:03:03;3.55;;;3.13;;
59960;SDS011;55902;-37.980;-63.602;2023-07-02T08:05:30;5.80;;;3.20;;
59960;SDS011;55902;-37.980;-63.602;2023-07-02T08:07:57;4.50;;;3.08;;
59960;SDS011;55902;-37.980;-63.602;2023-07-02T08:10:24;3.75;;;3.35;;
59960;SDS011;55902;-37.980;-63.602;2023-07-02T08:12:53;3.60;;;2.90;;
59960;SDS011;55902;-37.980;-63.602;2023-07-02T08:15:20;5.38;;;2.90;;
59960;SDS011;55902;-37.980;-63.602;2023-07-02T08:17:48;5.22;;;2.90;;
59960;SDS011;55902;-37.980;-63.602;2023-07-02T08:20:17;3.72;;;2.90;;
59960;SDS011;55902;-37.980;-63.602;2023-07-02T08:22:44;4.30;;;3.03;;
59960;SDS011;55902;-37.980;-63.602;2023-07-02T08:25:11;3.90;;;3.00;;
59960;SDS011;55902;-37.980;-63.602;2023-07-02T08:27:38;7.45;;;3.42;;
59960;SDS011;55902;-37.980;-63.602;2023-07-02T08:30:05;4.45;;;2.83;;
59960;SDS011;55902;-37.980;-63.602;2023-07-02T08:32:32;4.47;;;2.83;;
59960;SDS011;55902;-37.980;-63.602;2023-07-02T08:34:59;3.80;;;2.80;;
59960;SDS011;55902;-37.980;-63.602;2023-07-02T08:37:27;3.53;;;2.97;;
59960;SDS011;55902;-37.980;-63.602;2023-07-02T08:39:54;5.10;;;3.17;;
59960;SDS011;55902;-37.980;-63.602;2023-07-02T08:42:21;4.05;;;3.00;;
59960;SDS011;55902;-37.980;-63.602;2023-07-02T08:44:48;5.00;;;3.13;;
59960;SDS011;55902;-37.980;-63.602;2023-07-02T08:47:19;4.35;;;3.03;;
59960;SDS011;55902;-37.980;-63.602;2023-07-02T08:49:47;3.20;;;2.88;;
59960;SDS011;55902;-37.980;-63.602;2023-07-02T08:52:15;3.70;;;2.80;;
59960;SDS011;55902;-37.980;-63.602;2023-07-02T08:54:42;4.60;;;2.78;;
59960;SDS011;55902;-37.980;-63.602;2023-07-02T08:57:09;3.58;;;2.88;;
59960;SDS011;55902;-37.980;-63.602;2023-07-02T08:59:36;3.08;;;2.72;;
59960;SDS011;55902;-37.980;-63.602;2023-07-02T09:02:03;4.70;;;3.00;;
59960;SDS011;55902;-37.980;-63.602;2023-07-02T09:04:30;7.72;;;2.92;;
59960;SDS011;55902;-37.980;-63.602;2023-07-02T09:09:32;4.85;;;3.20;;
59960;SDS011;55902;-37.980;-63.602;2023-07-02T09:11:59;5.45;;;3.00;;
59960;SDS011;55902;-37.980;-63.602;2023-07-02T09:14:27;4.05;;;2.95;;
59960;SDS011;55902;-37.980;-63.602;2023-07-02T09:17:05;5.22;;;3.13;;
59960;SDS011;55902;-37.980;-63.602;2023-07-02T09:19:36;4.50;;;3.00;;
59960;SDS011;55902;-37.980;-63.602;2023-07-02T09:22:16;3.33;;;2.90;;
59960;SDS011;55902;-37.980;-63.602;2023-07-02T09:24:50;3.42;;;3.10;;
59960;SDS011;55902;-37.980;-63.602;2023-07-02T09:32:39;7.00;;;3.20;;
59960;SDS011;55902;-37.980;-63.602;2023-07-02T09:35:07;3.58;;;3.00;;
59960;SDS011;55902;-37.980;-63.602;2023-07-02T09:37:34;4.30;;;3.10;;
59960;SDS011;55902;-37.980;-63.602;2023-07-02T09:40:02;4.57;;;3.08;;
59960;SDS011;55902;-37.980;-63.602;2023-07-02T09:42:33;3.53;;;3.17;;
59960;SDS011;55902;-37.980;-63.602;2023-07-02T09:45:01;5.13;;;3.10;;
59960;SDS011;55902;-37.980;-63.602;2023-07-02T09:47:33;4.47;;;3.05;;
59960;SDS011;55902;-37.980;-63.602;2023-07-02T09:50:05;4.85;;;3.15;;
59960;SDS011;55902;-37.980;-63.602;2023-07-02T09:52:33;4.05;;;3.20;;
59960;SDS011;55902;-37.980;-63.602;2023-07-02T09:55:01;3.90;;;3.17;;
59960;SDS011;55902;-37.980;-63.602;2023-07-02T09:57:29;5.72;;;3.13;;
59960;SDS011;55902;-37.980;-63.602;2023-07-02T09:59:58;3.70;;;3.13;;
59960;SDS011;55902;-37.980;-63.602;2023-07-02T10:02:30;4.68;;;3.40;;
59960;SDS011;55902;-37.980;-63.602;2023-07-02T10:04:57;4.78;;;3.40;;
59960;SDS011;55902;-37.980;-63.602;2023-07-02T10:07:31;5.45;;;3.30;;
59960;SDS011;55902;-37.980;-63.602;2023-07-02T10:09:59;5.32;;;3.35;;
59960;SDS011;55902;-37.980;-63.602;2023-07-02T10:12:29;4.13;;;3.08;;
59960;SDS011;55902;-37.980;-63.602;2023-07-02T10:14:57;3.90;;;3.05;;
59960;SDS011;55902;-37.980;-63.602;2023-07-02T10:19:54;4.88;;;3.50;;
59960;SDS011;55902;-37.980;-63.602;2023-07-02T10:22:23;4.90;;;3.30;;
59960;SDS011;55902;-37.980;-63.602;2023-07-02T10:24:56;4.85;;;3.15;;
59960;SDS011;55902;-37.980;-63.602;2023-07-02T10:27:36;4.00;;;2.97;;
59960;SDS011;55902;-37.980;-63.602;2023-07-02T10:30:05;5.53;;;3.20;;
59960;SDS011;55902;-37.980;-63.602;2023-07-02T10:32:34;5.25;;;3.45;;
59960;SDS011;55902;-37.980;-63.602;2023-07-02T10:35:02;4.97;;;3.30;;
59960;SDS011;55902;-37.980;-63.602;2023-07-02T10:37:51;5.55;;;3.70;;
59960;SDS011;55902;-37.980;-63.602;2023-07-02T10:40:17;3.50;;;3.20;;
59960;SDS011;55902;-37.980;-63.602;2023-07-02T10:42:48;5.15;;;3.35;;
59960;SDS011;55902;-37.980;-63.602;2023-07-02T10:45:17;4.57;;;3.28;;
59960;SDS011;55902;-37.980;-63.602;2023-07-02T10:47:44;6.50;;;3.40;;
59960;SDS011;55902;-37.980;-63.602;2023-07-02T10:50:18;5.03;;;3.50;;
59960;SDS011;55902;-37.980;-63.602;2023-07-02T10:52:46;3.97;;;3.10;;
59960;SDS011;55902;-37.980;-63.602;2023-07-02T10:55:18;5.15;;;3.45;;
59960;SDS011;55902;-37.980;-63.602;2023-07-02T10:57:47;5.75;;;2.90;;
59960;SDS011;55902;-37.980;-63.602;2023-07-02T11:00:18;4.72;;;3.20;;
59960;SDS011;55902;-37.980;-63.602;2023-07-02T11:02:45;3.25;;;2.95;;
59960;SDS011;55902;-37.980;-63.602;2023-07-02T11:05:12;4.07;;;3.30;;
59960;SDS011;55902;-37.980;-63.602;2023-07-02T11:11:06;4.40;;;3.20;;
59960;SDS011;55902;-37.980;-63.602;2023-07-02T11:20:59;4.38;;;3.30;;
59960;SDS011;55902;-37.980;-63.602;2023-07-02T11:23:36;4.85;;;3.45;;
59960;SDS011;55902;-37.980;-63.602;2023-07-02T11:26:03;5.22;;;3.28;;
59960;SDS011;55902;-37.980;-63.602;2023-07-02T11:28:31;4.25;;;3.42;;
59960;SDS011;55902;-37.980;-63.602;2023-07-02T11:31:00;3.70;;;3.33;;
59960;SDS011;55902;-37.980;-63.602;2023-07-02T11:33:37;4.40;;;3.65;;
59960;SDS011;55902;-37.980;-63.602;2023-07-02T11:36:07;4.13;;;3.35;;
59960;SDS011;55902;-37.980;-63.602;2023-07-02T11:38:45;3.53;;;3.15;;
59960;SDS011;55902;-37.980;-63.602;2023-07-02T11:41:13;4.05;;;3.30;;
59960;SDS011;55902;-37.980;-63.602;2023-07-02T11:43:39;5.78;;;3.38;;
59960;SDS011;55902;-37.980;-63.602;2023-07-02T11:46:06;4.65;;;3.50;;
59960;SDS011;55902;-37.980;-63.602;2023-07-02T11:48:33;4.53;;;3.40;;
59960;SDS011;55902;-37.980;-63.602;2023-07-02T11:51:00;4.95;;;3.20;;
59960;SDS011;55902;-37.980;-63.602;2023-07-02T11:53:27;4.28;;;3.30;;
59960;SDS011;55902;-37.980;-63.602;2023-07-02T11:55:54;5.20;;;3.33;;
59960;SDS011;55902;-37.980;-63.602;2023-07-02T11:58:21;5.03;;;3.50;;
59960;SDS011;55902;-37.980;-63.602;2023-07-02T12:00:48;5.15;;;3.50;;
59960;SDS011;55902;-37.980;-63.602;2023-07-02T12:03:15;4.07;;;3.17;;
59960;SDS011;55902;-37.980;-63.602;2023-07-02T12:05:42;4.28;;;3.28;;
59960;SDS011;55902;-37.980;-63.602;2023-07-02T12:08:09;3.63;;;3.13;;
59960;SDS011;55902;-37.980;-63.602;2023-07-02T12:10:36;5.15;;;3.35;;
59960;SDS011;55902;-37.980;-63.602;2023-07-02T12:13:03;4.28;;;3.47;;
59960;SDS011;55902;-37.980;-63.602;2023-07-02T12:15:30;6.20;;;3.65;;
59960;SDS011;55902;-37.980;-63.602;2023-07-02T12:17:57;4.20;;;3.70;;
59960;SDS011;55902;-37.980;-63.602;2023-07-02T12:20:24;4.95;;;3.70;;
59960;SDS011;55902;-37.980;-63.602;2023-07-02T12:22:51;5.13;;;3.72;;
59960;SDS011;55902;-37.980;-63.602;2023-07-02T12:25:18;7.50;;;4.10;;
59960;SDS011;55902;-37.980;-63.602;2023-07-02T12:27:45;5.32;;;3.88;;
59960;SDS011;55902;-37.980;-63.602;2023-07-02T12:30:12;5.22;;;3.90;;
59960;SDS011;55902;-37.980;-63.602;2023-07-02T12:42:49;4.05;;;3.65;;
59960;SDS011;55902;-37.980;-63.602;2023-07-02T12:45:16;5.07;;;3.90;;
59960;SDS011;55902;-37.980;-63.602;2023-07-02T12:47:43;4.85;;;3.30;;
59960;SDS011;55902;-37.980;-63.602;2023-07-02T12:50:10;3.78;;;3.28;;
59960;SDS011;55902;-37.980;-63.602;2023-07-02T12:52:38;3.45;;;3.15;;
59960;SDS011;55902;-37.980;-63.602;2023-07-02T12:55:05;5.35;;;3.30;;
59960;SDS011;55902;-37.980;-63.602;2023-07-02T12:57:32;5.07;;;3.45;;
59960;SDS011;55902;-37.980;-63.602;2023-07-02T13:00:00;4.75;;;3.42;;
59960;SDS011;55902;-37.980;-63.602;2023-07-02T13:02:27;4.45;;;3.30;;
59960;SDS011;55902;-37.980;-63.602;2023-07-02T13:04:54;3.75;;;3.25;;
59960;SDS011;55902;-37.980;-63.602;2023-07-02T13:07:21;5.82;;;3.70;;
59960;SDS011;55902;-37.980;-63.602;2023-07-02T13:09:49;7.78;;;3.80;;
59960;SDS011;55902;-37.980;-63.602;2023-07-02T13:12:16;4.30;;;3.47;;
59960;SDS011;55902;-37.980;-63.602;2023-07-02T13:14:43;4.38;;;3.30;;
59960;SDS011;55902;-37.980;-63.602;2023-07-02T13:17:10;5.13;;;3.60;;
59960;SDS011;55902;-37.980;-63.602;2023-07-02T13:19:37;4.55;;;3.45;;
59960;SDS011;55902;-37.980;-63.602;2023-07-02T13:22:04;4.63;;;3.10;;
59960;SDS011;55902;-37.980;-63.602;2023-07-02T13:24:34;5.25;;;2.78;;
59960;SDS011;55902;-37.980;-63.602;2023-07-02T13:27:05;3.50;;;2.95;;
59960;SDS011;55902;-37.980;-63.602;2023-07-02T13:29:36;6.05;;;3.10;;
59960;SDS011;55902;-37.980;-63.602;2023-07-02T13:32:04;4.57;;;3.17;;
59960;SDS011;55902;-37.980;-63.602;2023-07-02T13:34:31;5.47;;;3.75;;
59960;SDS011;55902;-37.980;-63.602;2023-07-02T13:36:58;4.82;;;3.20;;
59960;SDS011;55902;-37.980;-63.602;2023-07-02T13:39:28;4.82;;;2.90;;
59960;SDS011;55902;-37.980;-63.602;2023-07-02T13:41:56;5.75;;;2.97;;
59960;SDS011;55902;-37.980;-63.602;2023-07-02T13:44:23;5.95;;;2.75;;
59960;SDS011;55902;-37.980;-63.602;2023-07-02T13:46:50;7.38;;;3.17;;
59960;SDS011;55902;-37.980;-63.602;2023-07-02T13:49:18;5.97;;;3.50;;
59960;SDS011;55902;-37.980;-63.602;2023-07-02T13:51:46;5.47;;;3.30;;
59960;SDS011;55902;-37.980;-63.602;2023-07-02T13:54:16;4.30;;;3.17;;
59960;SDS011;55902;-37.980;-63.602;2023-07-02T13:56:44;5.45;;;3.20;;
59960;SDS011;55902;-37.980;-63.602;2023-07-02T13:59:13;4.90;;;3.63;;
59960;SDS011;55902;-37.980;-63.602;2023-07-02T14:05:03;5.57;;;3.53;;
59960;SDS011;55902;-37.980;-63.602;2023-07-02T14:07:30;5.18;;;3.30;;
59960;SDS011;55902;-37.980;-63.602;2023-07-02T14:09:57;6.88;;;3.65;;
59960;SDS011;55902;-37.980;-63.602;2023-07-02T14:12:24;4.30;;;3.30;;
59960;SDS011;55902;-37.980;-63.602;2023-07-02T14:14:51;4.82;;;3.22;;
59960;SDS011;55902;-37.980;-63.602;2023-07-02T14:17:18;5.45;;;3.35;;
59960;SDS011;55902;-37.980;-63.602;2023-07-02T14:19:45;4.90;;;3.78;;
59960;SDS011;55902;-37.980;-63.602;2023-07-02T14:22:12;7.45;;;3.50;;
59960;SDS011;55902;-37.980;-63.602;2023-07-02T14:24:39;5.07;;;3.47;;
59960;SDS011;55902;-37.980;-63.602;2023-07-02T14:27:06;3.78;;;3.38;;
59960;SDS011;55902;-37.980;-63.602;2023-07-02T14:29:33;5.95;;;4.40;;
59960;SDS011;55902;-37.980;-63.602;2023-07-02T14:32:00;4.38;;;3.60;;
59960;SDS011;55902;-37.980;-63.602;2023-07-02T14:34:27;5.07;;;3.55;;
59960;SDS011;55902;-37.980;-63.602;2023-07-02T14:36:55;4.47;;;3.30;;
59960;SDS011;55902;-37.980;-63.602;2023-07-02T14:39:22;4.20;;;3.15;;
59960;SDS011;55902;-37.980;-63.602;2023-07-02T14:41:50;4.22;;;3.40;;
59960;SDS011;55902;-37.980;-63.602;2023-07-02T14:44:17;8.07;;;3.60;;
59960;SDS011;55902;-37.980;-63.602;2023-07-02T14:46:44;6.28;;;3.40;;
59960;SDS011;55902;-37.980;-63.602;2023-07-02T14:49:11;6.32;;;3.80;;
59960;SDS011;55902;-37.980;-63.602;2023-07-02T14:51:38;4.72;;;3.55;;
59960;SDS011;55902;-37.980;-63.602;2023-07-02T14:54:05;5.65;;;3.88;;
59960;SDS011;55902;-37.980;-63.602;2023-07-02T14:56:33;6.43;;;3.67;;
59960;SDS011;55902;-37.980;-63.602;2023-07-02T14:59:03;5.85;;;3.67;;
59960;SDS011;55902;-37.980;-63.602;2023-07-02T15:01:32;5.20;;;3.78;;
59960;SDS011;55902;-37.980;-63.602;2023-07-02T15:03:59;6.28;;;4.30;;
59960;SDS011;55902;-37.980;-63.602;2023-07-02T15:06:26;6.13;;;4.20;;
59960;SDS011;55902;-37.980;-63.602;2023-07-02T15:08:53;5.75;;;3.95;;
59960;SDS011;55902;-37.980;-63.602;2023-07-02T15:11:20;6.88;;;4.20;;
59960;SDS011;55902;-37.980;-63.602;2023-07-02T15:13:47;6.20;;;4.57;;
59960;SDS011;55902;-37.980;-63.602;2023-07-02T15:19:36;8.13;;;4.40;;
59960;SDS011;55902;-37.980;-63.602;2023-07-02T15:36:47;5.88;;;4.00;;
59960;SDS011;55902;-37.980;-63.602;2023-07-02T15:39:15;6.53;;;4.57;;